Terminal Aerodrome Forecast
Issued by NWS Greer, SC

Home | Current Version | Previous Version | Text Only | Print | Product List | Glossary On
Versions: 1 2 3 4 5 6 7 8 9 10 11 12 13 14 15 16 17 18 19 20 21 22 23 24 25 26 27 28
000
FTUS42 KGSP 172335
TAFCLT
TAF
KCLT 172335Z 1800/1824 20008KT P6SM BKN060 WS020/24035KT
     FM180900 24010KT 4SM BR OVC015
     FM181100 25009KT 4SM BR OVC007
     FM181300 26008KT P6SM BKN030
     FM181500 29008KT P6SM SCT120 BKN250
     FM182200 33006KT P6SM FEW250=

USA.gov is the U.S. government's official web portal to all federal, state and local government web resources and services.